Chautauqua County-Jamestown Airport
KJHW : rendu visible

Aérodrome :











RETROUVEZ-NOUS SUR...

 
LOGIN :

S'inscrire | Disclaimer

   EN    FR    IT 

 









Légende :    VFR   VFR Marginal   IFR   IFR Intensif   IFR Très Intensif
Visi : 
Plafond : 
>= 8 km
>= 3000ft
5 à 8 km
1000 à 3000 ft
1500m à 5 km
500 à 1000 ft
800 à 1500m
200 à 500 ft
< 800m
< 200 ft
Symboles :   Orages  Brouillard  Fortes neiges  Fortes précipitations  Vent > 20 kt






- Altitude de l'aérodrome : 1723 ft


KJHW - Chautauqua County-Jamestown

DERNIER METAR :
  • 080956Z AUTO 35004KT 1/4SM FG OVC002 07/07 A2959 RMK AO2 SLP031 T00670067 RVRNO

METARs EXPIRÉS :
  • 080910Z AUTO 36006KT 1/4SM FG OVC002 07/07 A2958 RMK AO2 RVRNO
  • 080856Z AUTO 33006KT 1/2SM FG OVC002 07/07 A2958 RMK AO2 SLP025 60001 T00720072 56000 RVRNO
  • 080837Z AUTO 32008KT 1/2SM FG OVC002 07/07 A2958 RMK AO2 RVRNO
  • 080820Z AUTO 32009KT 2 1/2SM BR OVC002 08/07 A2958 RMK AO2
  • 080804Z AUTO 36006KT 1/4SM FG BKN002 BKN010 OVC090 08/07 A2958 RMK AO2 RVRNO
  • 080750Z AUTO 36008KT 1/2SM FG FEW002 SCT010 BKN090 09/08 A2957 RMK AO2 RVRNO

TAF KJHW
Valide du 08 à 09h jusqu'au 09 à 06h UTC


080925Z 0809/0906 35005KT 1SM BR OVC003
TEMPO 0809/0813 1/4SM FG VV002
FM081400 29008KT 5SM BR OVC008
FM081600 29010KT P6SM OVC015
FM081800 29011G19KT P6SM SCT070
FM090400 19010G17KT 6SM -SHRA BKN090



MET'MAP, la Météo Aéronautique d'un coup d'oeil ! - Copyright ORBIFLY Décembre 2007 - Disclaimer

ORBIFLY MET'MAP TEAM :

Programmation & Développement : Alexandra Zaïnal
Sur une idée originale de : Baudouin d'Aumeries
Assistance à la programmation : Marc-Olivier Méhu
Soutien technique & logistique : Manuel Goepfert

Contact : metmap@orbifly.com




SOURCES & CREDITS :

   NOAA       Earth
Advisory